createdAt,value
2022-08-11T00:03:06.095Z,2.30
2022-08-11T00:06:08.519Z,2.20
2022-08-11T00:09:15.290Z,2.40
2022-08-11T00:12:18.643Z,2.30
2022-08-11T00:15:21.625Z,2.50
2022-08-11T00:18:23.783Z,2.25
2022-08-11T00:22:01.851Z,2.30
2022-08-11T00:24:54.972Z,2.40
2022-08-11T00:27:58.835Z,2.20
2022-08-11T00:31:05.530Z,2.05
2022-08-11T00:34:12.842Z,2.22
2022-08-11T00:37:21.598Z,2.22
2022-08-11T00:40:36.828Z,2.15
2022-08-11T00:43:59.529Z,2.20
2022-08-11T00:47:27.567Z,2.28
2022-08-11T00:50:47.063Z,2.20
2022-08-11T00:54:06.227Z,1.90
2022-08-11T00:57:37.308Z,2.15
2022-08-11T01:04:20.202Z,2.17
2022-08-11T01:08:08.704Z,2.13
2022-08-11T01:11:55.610Z,2.45
2022-08-11T01:15:41.250Z,2.20
2022-08-11T01:19:12.502Z,2.47
2022-08-11T01:22:59.070Z,2.10
2022-08-11T01:26:38.047Z,2.17
2022-08-11T01:30:15.512Z,2.45
2022-08-11T01:33:53.841Z,2.30
2022-08-11T01:37:25.023Z,2.60
2022-08-11T01:40:38.754Z,2.60
2022-08-11T01:44:21.027Z,2.17
2022-08-11T01:51:22.903Z,2.30
2022-08-11T01:54:31.532Z,2.70
2022-08-11T01:57:45.994Z,2.45
2022-08-11T02:01:28.926Z,2.17
2022-08-11T02:04:48.542Z,2.70
2022-08-11T02:07:58.388Z,2.67
2022-08-11T02:11:35.123Z,2.30
2022-08-11T02:15:04.499Z,2.40
2022-08-11T02:18:52.479Z,2.35
2022-08-11T02:22:24.146Z,2.42
2022-08-11T02:25:36.024Z,2.78
2022-08-11T02:32:30.689Z,2.40
2022-08-11T02:35:47.189Z,2.53
2022-08-11T02:39:00.867Z,2.55
2022-08-11T02:42:32.799Z,2.60
2022-08-11T02:46:01.147Z,2.65
2022-08-11T02:49:21.065Z,2.50
2022-08-11T02:52:36.288Z,2.60
2022-08-11T02:56:09.188Z,2.50
2022-08-11T02:59:42.896Z,2.55
2022-08-11T03:03:08.158Z,2.53
2022-08-11T03:06:24.891Z,2.60
2022-08-11T03:09:42.423Z,2.65
2022-08-11T03:13:34.657Z,2.53
2022-08-11T03:16:54.992Z,2.50
2022-08-11T03:20:19.058Z,2.50
2022-08-11T03:23:33.691Z,2.63
2022-08-11T03:27:07.436Z,2.58
2022-08-11T03:30:17.825Z,2.80
2022-08-11T03:33:49.568Z,2.90
2022-08-11T03:37:16.805Z,2.60
2022-08-11T03:40:39.664Z,2.80
2022-08-11T03:43:58.345Z,2.75
2022-08-11T03:47:21.791Z,2.90
2022-08-11T03:50:55.730Z,2.75
2022-08-11T03:54:34.940Z,2.78
2022-08-11T03:57:49.579Z,3.20
2022-08-11T04:01:08.222Z,2.88
2022-08-11T04:04:29.061Z,2.80
2022-08-11T04:08:16.111Z,2.80
2022-08-11T04:12:17.318Z,2.90
2022-08-11T04:16:12.498Z,2.90
2022-08-11T04:19:51.075Z,2.92
2022-08-11T04:22:52.459Z,3.20
2022-08-11T04:26:18.842Z,3.00
2022-08-11T04:30:03.534Z,3.60
2022-08-11T04:33:43.504Z,3.60
2022-08-11T04:37:30.060Z,3.70
2022-08-11T04:40:56.423Z,3.60
2022-08-11T04:44:38.740Z,3.45
2022-08-11T04:52:37.464Z,3.22
2022-08-11T04:56:16.428Z,3.40
2022-08-11T04:59:51.861Z,3.10
2022-08-11T05:03:30.159Z,3.45
2022-08-11T05:06:52.004Z,3.42
2022-08-11T05:10:18.605Z,3.70
2022-08-11T05:13:53.672Z,3.90
2022-08-11T05:17:19.294Z,3.78
2022-08-11T05:20:42.719Z,3.60
2022-08-11T05:24:07.944Z,3.80
2022-08-11T05:27:30.864Z,4.00
2022-08-11T05:30:51.894Z,3.83
2022-08-11T05:34:18.342Z,3.60
2022-08-11T05:37:28.941Z,3.60
2022-08-11T05:40:52.948Z,3.70
2022-08-11T05:44:20.126Z,3.60
2022-08-11T05:47:44.130Z,3.90
2022-08-11T05:54:36.762Z,3.85
2022-08-11T05:57:51.517Z,3.92
2022-08-11T06:00:54.127Z,4.25
2022-08-11T06:04:14.215Z,4.13
2022-08-11T06:07:17.668Z,4.05
2022-08-11T06:10:30.949Z,3.95
2022-08-11T06:13:33.827Z,4.00
2022-08-11T06:16:35.694Z,4.22
2022-08-11T06:22:48.577Z,4.07
2022-08-11T06:25:56.505Z,4.38
2022-08-11T06:29:01.545Z,4.63
2022-08-11T06:32:06.119Z,4.57
2022-08-11T06:35:13.837Z,4.85
2022-08-11T06:38:42.240Z,4.53
2022-08-11T06:41:53.925Z,4.22
2022-08-11T06:45:16.615Z,5.10
2022-08-11T06:48:22.313Z,4.30
2022-08-11T06:51:24.791Z,4.75
2022-08-11T06:54:27.506Z,4.50
2022-08-11T06:57:48.018Z,4.82
2022-08-11T07:00:56.810Z,4.60
2022-08-11T07:04:06.518Z,4.85
2022-08-11T07:08:00.150Z,5.32
2022-08-11T07:12:09.481Z,5.13
2022-08-11T07:16:11.549Z,5.13
2022-08-11T07:19:19.868Z,5.07
2022-08-11T07:22:43.285Z,4.60
2022-08-11T07:26:08.439Z,5.15
2022-08-11T07:29:14.435Z,4.65
2022-08-11T07:32:24.231Z,4.28
2022-08-11T07:35:36.673Z,4.68
2022-08-11T07:38:53.829Z,4.60
2022-08-11T07:41:58.209Z,4.10
2022-08-11T07:45:18.848Z,4.40
2022-08-11T07:48:39.998Z,4.40
2022-08-11T07:52:02.366Z,4.43
2022-08-11T07:55:08.427Z,4.30
2022-08-11T07:58:44.884Z,4.50
2022-08-11T08:02:05.991Z,4.10
2022-08-11T08:05:26.765Z,3.78
2022-08-11T08:08:46.807Z,3.70
2022-08-11T08:12:07.629Z,4.10
2022-08-11T08:15:30.447Z,4.55
2022-08-11T08:18:35.895Z,3.70
2022-08-11T08:21:39.221Z,4.00
2022-08-11T08:24:41.812Z,3.33
2022-08-11T08:27:45.722Z,2.95
2022-08-11T08:30:51.729Z,3.60
2022-08-11T08:33:53.546Z,3.80
2022-08-11T08:36:55.549Z,3.05
2022-08-11T08:39:59.127Z,3.45
2022-08-11T08:43:10.138Z,3.10
2022-08-11T08:46:14.089Z,2.67
2022-08-11T08:49:19.264Z,2.88
2022-08-11T08:52:42.707Z,2.65
2022-08-11T08:55:46.180Z,3.05
2022-08-11T08:58:49.337Z,2.88
2022-08-11T09:01:58.336Z,2.97
2022-08-11T09:05:00.561Z,2.70
2022-08-11T09:08:03.007Z,2.67
2022-08-11T09:11:24.196Z,2.67
2022-08-11T09:14:51.464Z,2.55
2022-08-11T09:18:06.569Z,2.80
2022-08-11T09:21:08.298Z,2.80
2022-08-11T09:24:28.921Z,2.67
2022-08-11T09:27:30.435Z,2.70
2022-08-11T09:33:36.355Z,2.72
2022-08-11T09:37:00.159Z,2.72
2022-08-11T09:40:21.393Z,2.30
2022-08-11T09:43:47.773Z,2.50
2022-08-11T09:46:50.307Z,2.72
2022-08-11T09:49:59.973Z,2.65
2022-08-11T09:53:35.136Z,2.53
2022-08-11T09:56:47.710Z,2.78
2022-08-11T10:02:56.691Z,2.47
2022-08-11T10:06:33.081Z,2.63
2022-08-11T10:09:40.093Z,2.20
2022-08-11T10:12:48.478Z,2.20
2022-08-11T10:15:59.846Z,2.85
2022-08-11T10:19:12.560Z,2.60
2022-08-11T10:22:34.627Z,2.38
2022-08-11T10:25:55.403Z,2.35
2022-08-11T10:29:12.528Z,2.70
2022-08-11T10:32:57.736Z,2.72
2022-08-11T10:36:00.165Z,2.50
2022-08-11T10:39:06.613Z,2.38
2022-08-11T10:42:41.759Z,2.40
2022-08-11T10:46:15.664Z,2.70
2022-08-11T10:49:19.032Z,2.50
2022-08-11T10:52:39.955Z,2.20
2022-08-11T10:59:10.568Z,2.40
2022-08-11T11:02:15.093Z,2.20
2022-08-11T11:05:24.943Z,2.60
2022-08-11T11:12:18.435Z,2.63
2022-08-11T11:15:40.804Z,2.40
2022-08-11T11:18:44.267Z,2.35
2022-08-11T11:22:22.877Z,2.50
2022-08-11T11:25:40.592Z,2.00
2022-08-11T11:29:03.905Z,2.47
2022-08-11T11:32:11.598Z,2.33
2022-08-11T11:35:16.176Z,2.40
2022-08-11T11:38:18.903Z,2.10
2022-08-11T11:41:26.411Z,2.40
2022-08-11T11:44:29.269Z,2.15
2022-08-11T11:47:33.028Z,2.20
2022-08-11T11:50:37.317Z,2.60
2022-08-11T11:53:39.032Z,2.22
2022-08-11T11:56:42.805Z,2.20
2022-08-11T12:00:03.375Z,2.25
2022-08-11T12:03:12.042Z,2.47
2022-08-11T12:06:14.598Z,2.40
2022-08-11T12:09:22.223Z,2.50
2022-08-11T12:12:43.754Z,2.30
2022-08-11T12:16:04.286Z,2.60
2022-08-11T12:19:18.052Z,2.50
2022-08-11T12:22:38.420Z,2.50
2022-08-11T12:26:16.524Z,2.40
2022-08-11T12:29:27.069Z,2.28
2022-08-11T12:32:31.818Z,2.30
2022-08-11T12:35:35.209Z,2.50
2022-08-11T12:38:37.269Z,2.42
2022-08-11T12:42:00.317Z,2.53
2022-08-11T12:45:26.013Z,2.50
2022-08-11T12:48:59.078Z,2.45
2022-08-11T12:52:14.924Z,2.60
2022-08-11T12:56:07.568Z,2.58
2022-08-11T12:59:29.079Z,2.45
2022-08-11T13:02:49.464Z,2.35
2022-08-11T13:05:55.465Z,2.47
2022-08-11T13:09:01.090Z,2.40
2022-08-11T13:12:21.609Z,2.53
2022-08-11T13:15:25.611Z,2.35
2022-08-11T13:18:27.677Z,2.42
2022-08-11T13:21:29.991Z,2.28
2022-08-11T13:24:34.120Z,2.15
2022-08-11T13:27:36.362Z,2.63
2022-08-11T13:30:57.620Z,2.50
2022-08-11T13:37:05.133Z,2.63
2022-08-11T13:40:07.684Z,2.45
2022-08-11T13:43:10.236Z,2.60
2022-08-11T13:46:21.169Z,2.20
2022-08-11T13:49:25.031Z,2.30
2022-08-11T13:52:28.168Z,2.50
2022-08-11T13:55:33.235Z,2.30
2022-08-11T13:58:53.971Z,2.55
2022-08-11T14:02:21.777Z,2.33
2022-08-11T14:05:31.041Z,2.22
2022-08-11T14:08:38.466Z,2.45
2022-08-11T14:12:21.392Z,2.15
2022-08-11T14:15:34.063Z,2.40
2022-08-11T14:22:07.017Z,2.17
2022-08-11T14:25:10.542Z,2.10
2022-08-11T14:28:43.853Z,2.03
2022-08-11T14:31:36.788Z,2.05
2022-08-11T14:34:43.867Z,2.25
2022-08-11T14:37:45.679Z,2.22
2022-08-11T14:41:07.187Z,2.75
2022-08-11T14:44:28.203Z,2.28
2022-08-11T14:47:33.824Z,2.28
2022-08-11T14:50:36.605Z,2.40
2022-08-11T14:53:38.376Z,2.30
2022-08-11T14:56:40.225Z,2.33
2022-08-11T14:59:43.642Z,2.30
2022-08-11T15:03:07.290Z,2.58
2022-08-11T15:06:08.866Z,2.20
2022-08-11T15:09:10.415Z,2.38
2022-08-11T15:12:32.766Z,2.40
2022-08-11T15:15:54.262Z,2.10
2022-08-11T15:18:56.358Z,2.30
2022-08-11T15:22:16.647Z,2.13
2022-08-11T15:25:20.858Z,2.00
2022-08-11T15:28:43.623Z,2.10
2022-08-11T15:32:04.104Z,2.22
2022-08-11T15:35:25.329Z,2.25
2022-08-11T15:38:39.985Z,2.53
2022-08-11T15:42:07.152Z,2.10
2022-08-11T15:45:28.904Z,2.80
2022-08-11T15:48:33.192Z,2.20
2022-08-11T15:51:40.886Z,2.42
2022-08-11T15:54:46.264Z,2.22
2022-08-11T15:58:08.748Z,2.30
2022-08-11T16:01:31.928Z,2.50
2022-08-11T16:04:36.571Z,2.60
2022-08-11T16:07:40.942Z,2.30
2022-08-11T16:10:44.022Z,2.53
2022-08-11T16:13:48.127Z,2.30
2022-08-11T16:16:56.087Z,2.10
2022-08-11T16:19:59.643Z,2.42
2022-08-11T16:23:04.800Z,2.17
2022-08-11T16:27:10.952Z,2.30
2022-08-11T16:29:32.208Z,2.15
2022-08-11T16:32:36.686Z,2.20
2022-08-11T16:35:59.441Z,2.20
2022-08-11T16:39:02.781Z,2.20
2022-08-11T16:43:04.502Z,2.20
2022-08-11T16:46:05.125Z,2.33
2022-08-11T16:49:10.734Z,2.13
2022-08-11T16:52:12.991Z,2.15
2022-08-11T16:55:52.181Z,2.15
2022-08-11T16:58:57.918Z,2.33
2022-08-11T17:02:12.664Z,2.20
2022-08-11T17:05:54.180Z,2.35
2022-08-11T17:09:17.020Z,2.17
2022-08-11T17:12:39.798Z,2.20
2022-08-11T17:16:06.211Z,2.30
2022-08-11T17:20:39.956Z,2.38
2022-08-11T17:23:02.686Z,2.30
2022-08-11T17:29:06.929Z,2.50
2022-08-11T17:32:31.970Z,2.40
2022-08-11T17:35:53.990Z,2.50
2022-08-11T17:38:55.765Z,2.50
2022-08-11T17:42:18.360Z,2.15
2022-08-11T17:45:40.586Z,2.10
2022-08-11T17:48:47.677Z,2.30
2022-08-11T17:52:09.741Z,2.30
2022-08-11T17:59:12.851Z,2.30
2022-08-11T18:02:52.001Z,2.40
2022-08-11T18:05:54.131Z,2.85
2022-08-11T18:09:15.865Z,2.22
2022-08-11T18:12:35.826Z,2.30
2022-08-11T18:16:02.238Z,2.47
2022-08-11T18:19:24.556Z,2.20
2022-08-11T18:22:49.898Z,2.53
2022-08-11T18:26:12.964Z,2.13
2022-08-11T18:29:42.089Z,2.60
2022-08-11T18:33:39.727Z,2.15
2022-08-11T18:36:47.877Z,2.10
2022-08-11T18:40:14.988Z,2.47
2022-08-11T18:43:38.103Z,2.33
2022-08-11T18:47:07.834Z,2.40
2022-08-11T18:50:39.564Z,2.40
2022-08-11T18:54:06.027Z,2.33
2022-08-11T18:57:27.734Z,2.50
2022-08-11T19:00:54.353Z,2.42
2022-08-11T19:04:17.218Z,2.30
2022-08-11T19:07:39.990Z,2.50
2022-08-11T19:11:03.007Z,2.70
2022-08-11T19:14:24.899Z,2.40
2022-08-11T19:17:46.875Z,2.50
2022-08-11T19:21:08.282Z,2.40
2022-08-11T19:24:32.769Z,2.58
2022-08-11T19:27:53.315Z,2.38
2022-08-11T19:31:14.578Z,2.50
2022-08-11T19:34:38.666Z,2.50
2022-08-11T19:37:59.418Z,2.38
2022-08-11T19:41:52.247Z,2.43
2022-08-11T19:45:00.866Z,2.70
2022-08-11T19:48:31.692Z,2.50
2022-08-11T19:51:54.799Z,2.45
2022-08-11T19:55:15.672Z,2.70
2022-08-11T19:58:36.279Z,2.60
2022-08-11T20:02:01.206Z,2.35
2022-08-11T20:05:33.318Z,2.42
2022-08-11T20:08:58.575Z,2.83
2022-08-11T20:12:23.126Z,2.40
2022-08-11T20:15:45.726Z,2.88
2022-08-11T20:19:08.938Z,3.05
2022-08-11T20:22:32.473Z,2.85
2022-08-11T20:25:55.740Z,2.50
2022-08-11T20:29:25.585Z,2.60
2022-08-11T20:32:46.367Z,2.75
2022-08-11T20:36:07.716Z,2.60
2022-08-11T20:39:29.144Z,2.50
2022-08-11T20:42:52.407Z,2.63
2022-08-11T20:46:13.104Z,2.40
2022-08-11T20:49:42.314Z,2.80
2022-08-11T20:53:09.439Z,2.70
2022-08-11T20:56:30.739Z,2.65
2022-08-11T20:59:56.644Z,2.80
2022-08-11T21:03:35.723Z,2.78
2022-08-11T21:06:57.977Z,2.78
2022-08-11T21:13:51.309Z,2.95
2022-08-11T21:17:26.766Z,2.70
2022-08-11T21:20:50.464Z,2.90
2022-08-11T21:24:16.060Z,2.67
2022-08-11T21:27:38.284Z,2.90
2022-08-11T21:30:58.381Z,2.50
2022-08-11T21:34:20.169Z,3.22
2022-08-11T21:41:03.398Z,3.10
2022-08-11T21:44:25.207Z,2.90
2022-08-11T21:51:05.273Z,3.47
2022-08-11T21:54:26.100Z,3.20
2022-08-11T21:57:50.192Z,3.30
2022-08-11T22:01:11.274Z,2.90
2022-08-11T22:04:32.236Z,2.97
2022-08-11T22:07:52.431Z,2.90
2022-08-11T22:11:13.552Z,2.85
2022-08-11T22:14:33.875Z,3.40
2022-08-11T22:17:57.848Z,3.20
2022-08-11T22:22:03.055Z,2.80
2022-08-11T22:24:59.936Z,3.33
2022-08-11T22:28:20.173Z,2.80
2022-08-11T22:31:41.147Z,2.50
2022-08-11T22:35:01.491Z,3.00
2022-08-11T22:38:21.942Z,2.60
2022-08-11T22:41:42.698Z,2.90
2022-08-11T22:45:02.774Z,3.20
2022-08-11T22:48:28.386Z,2.88
2022-08-11T22:51:48.794Z,3.08
2022-08-11T22:55:09.889Z,3.03
2022-08-11T22:58:30.950Z,3.05
2022-08-11T23:01:54.729Z,2.80
2022-08-11T23:05:18.750Z,2.90
2022-08-11T23:08:39.681Z,3.00
2022-08-11T23:12:06.128Z,3.05
2022-08-11T23:15:29.183Z,2.95
2022-08-11T23:18:49.770Z,2.73
2022-08-11T23:22:10.576Z,3.15
2022-08-11T23:25:30.899Z,3.20
2022-08-11T23:28:52.002Z,3.30
2022-08-11T23:32:13.050Z,2.90
2022-08-11T23:35:38.652Z,3.13
2022-08-11T23:38:59.525Z,3.35
2022-08-11T23:42:21.191Z,3.38
2022-08-11T23:45:42.259Z,3.30
2022-08-11T23:49:02.512Z,2.97
2022-08-11T23:52:23.737Z,3.50
2022-08-11T23:55:44.216Z,3.30
2022-08-11T23:59:04.955Z,3.13
